Mount Olive, Ohio
Current Conditions -  °F | °C
As of 9:53 AM on Friday 19 Dec 2014 (Local Time) from KLUK Reporting Station
Overcast Overcast  
Wind Chill: 29°   Ceiling: 2400
Heat Index: 29°   Visibility: 10mi
Dew Point: 20°   Wind: 0mph
Humidity: 69%   Direction: NA
Pressure: 30.33"   Gusts: NA
Location:  38.9479°N, 84.0585°W
Report Text: KLUK 191453Z 00000KT 10SM OVC024 M02/M07 A3033 RMK AO2 SLP274 T10171067 53009
Loading
Personal Weather Stations






























Interactive Weather Map New forecast layout! Learn more

10-Day Weather Forecast

Advertisements
Track Severe Weather on mobile